createdAt,value
2023-01-29T00:01:23.062Z,6.50
2023-01-29T00:03:52.935Z,6.50
2023-01-29T00:06:19.852Z,6.40
2023-01-29T00:08:46.900Z,6.50
2023-01-29T00:11:14.068Z,6.40
2023-01-29T00:13:40.738Z,6.40
2023-01-29T00:16:07.575Z,6.40
2023-01-29T00:18:34.880Z,6.40
2023-01-29T00:21:01.672Z,6.40
2023-01-29T00:23:28.409Z,6.40
2023-01-29T00:25:55.554Z,6.30
2023-01-29T00:28:22.384Z,6.30
2023-01-29T00:30:49.904Z,6.30
2023-01-29T00:33:16.679Z,6.30
2023-01-29T00:35:43.465Z,6.30
2023-01-29T00:38:10.260Z,6.20
2023-01-29T00:40:57.624Z,6.20
2023-01-29T00:43:43.126Z,6.20
2023-01-29T00:46:09.917Z,6.20
2023-01-29T00:48:36.665Z,6.20
2023-01-29T00:51:03.877Z,6.20
2023-01-29T00:53:30.630Z,6.20
2023-01-29T00:55:57.452Z,6.20
2023-01-29T00:58:28.212Z,6.20
2023-01-29T01:00:55.980Z,6.20
2023-01-29T01:03:22.696Z,6.20
2023-01-29T01:05:49.406Z,6.10
2023-01-29T01:08:35.047Z,6.20
2023-01-29T01:11:02.760Z,6.20
2023-01-29T01:13:29.742Z,6.20
2023-01-29T01:15:57.195Z,6.20
2023-01-29T01:18:23.969Z,6.20
2023-01-29T01:20:51.667Z,6.10
2023-01-29T01:23:19.313Z,6.10
2023-01-29T01:25:46.602Z,6.10
2023-01-29T01:28:13.484Z,6.20
2023-01-29T01:30:40.252Z,6.20
2023-01-29T01:33:07.489Z,6.20
2023-01-29T01:35:34.233Z,6.20
2023-01-29T01:38:00.967Z,6.10
2023-01-29T01:40:27.740Z,6.10
2023-01-29T01:42:55.870Z,6.10
2023-01-29T01:45:30.189Z,6.10
2023-01-29T01:48:17.612Z,6.10
2023-01-29T01:50:51.330Z,6.10
2023-01-29T01:53:23.106Z,6.20
2023-01-29T01:55:55.430Z,6.20
2023-01-29T01:58:32.236Z,6.20
2023-01-29T02:00:59.207Z,6.20
2023-01-29T02:03:44.778Z,6.20
2023-01-29T02:06:30.352Z,6.20
2023-01-29T02:09:26.038Z,6.10
2023-01-29T02:11:52.766Z,6.10
2023-01-29T02:14:19.573Z,6.10
2023-01-29T02:16:46.700Z,6.10
2023-01-29T02:19:37.289Z,6.10
2023-01-29T02:22:06.757Z,6.10
2023-01-29T02:24:50.222Z,6.10
2023-01-29T02:27:19.592Z,6.10
2023-01-29T02:29:57.015Z,6.00
2023-01-29T02:32:26.940Z,6.10
2023-01-29T02:35:15.526Z,6.10
2023-01-29T02:37:45.567Z,6.10
2023-01-29T02:40:13.791Z,6.10
2023-01-29T02:42:51.996Z,6.10
2023-01-29T02:45:28.052Z,6.10
2023-01-29T02:48:01.812Z,6.10
2023-01-29T02:50:37.507Z,6.00
2023-01-29T02:53:25.801Z,6.00
2023-01-29T02:56:00.787Z,6.10
2023-01-29T02:58:28.054Z,6.10
2023-01-29T03:00:55.409Z,6.10
2023-01-29T03:03:26.000Z,6.00
2023-01-29T03:06:06.335Z,6.10
2023-01-29T03:08:37.349Z,6.10
2023-01-29T03:11:05.851Z,6.00
2023-01-29T03:13:39.815Z,6.00
2023-01-29T03:16:09.664Z,6.00
2023-01-29T03:18:46.219Z,6.00
2023-01-29T03:21:36.879Z,6.00
2023-01-29T03:24:23.052Z,6.00
2023-01-29T03:27:09.978Z,6.00
2023-01-29T03:29:58.977Z,6.00
2023-01-29T03:32:38.492Z,6.00
2023-01-29T03:35:05.592Z,6.00
2023-01-29T03:37:43.523Z,6.00
2023-01-29T03:40:11.039Z,6.00
2023-01-29T03:42:43.871Z,6.00
2023-01-29T03:45:20.022Z,6.00
2023-01-29T03:48:07.672Z,6.00
2023-01-29T03:50:39.389Z,6.00
2023-01-29T03:53:18.932Z,6.00
2023-01-29T03:56:02.096Z,6.00
2023-01-29T03:58:38.951Z,6.10
2023-01-29T04:01:12.750Z,6.10
2023-01-29T04:03:43.750Z,6.10
2023-01-29T04:06:18.206Z,6.10
2023-01-29T04:08:56.119Z,6.10
2023-01-29T04:11:22.814Z,6.10
2023-01-29T04:13:49.509Z,6.00
2023-01-29T04:16:22.860Z,6.00
2023-01-29T04:19:09.605Z,6.10
2023-01-29T04:21:40.746Z,6.10
2023-01-29T04:24:08.109Z,6.10
2023-01-29T04:26:38.033Z,6.10
2023-01-29T04:29:08.328Z,6.10
2023-01-29T04:31:40.678Z,6.10
2023-01-29T04:34:07.742Z,6.10
2023-01-29T04:36:54.792Z,6.10
2023-01-29T04:39:25.751Z,6.10
2023-01-29T04:42:11.061Z,6.10
2023-01-29T04:44:45.040Z,6.10
2023-01-29T04:47:11.780Z,6.10
2023-01-29T04:49:50.558Z,6.10
2023-01-29T04:52:21.786Z,6.10
2023-01-29T04:54:48.459Z,6.20
2023-01-29T04:57:25.476Z,6.20
2023-01-29T05:00:04.565Z,6.20
2023-01-29T05:02:31.347Z,6.20
2023-01-29T05:04:58.042Z,6.20
2023-01-29T05:07:24.842Z,6.20
2023-01-29T05:09:51.486Z,6.20
2023-01-29T05:12:18.631Z,6.20
2023-01-29T05:14:45.641Z,6.20
2023-01-29T05:17:18.793Z,6.20
2023-01-29T05:19:45.540Z,6.20
2023-01-29T05:22:12.626Z,6.20
2023-01-29T05:24:39.292Z,6.20
2023-01-29T05:27:24.498Z,6.20
2023-01-29T05:29:51.186Z,6.20
2023-01-29T05:32:17.897Z,6.20
2023-01-29T05:34:44.712Z,6.20
2023-01-29T05:37:11.413Z,6.20
2023-01-29T05:39:38.073Z,6.20
2023-01-29T05:42:04.906Z,6.20
2023-01-29T05:44:31.739Z,6.20
2023-01-29T05:46:58.558Z,6.20
2023-01-29T05:49:25.329Z,6.20
2023-01-29T05:51:52.090Z,6.20
2023-01-29T05:54:19.199Z,6.20
2023-01-29T05:56:45.909Z,6.20
2023-01-29T05:59:12.622Z,6.20
2023-01-29T06:01:39.372Z,6.20
2023-01-29T06:04:06.119Z,6.30
2023-01-29T06:06:32.891Z,6.30
2023-01-29T06:08:59.555Z,6.30
2023-01-29T06:11:26.305Z,6.30
2023-01-29T06:13:53.334Z,6.30
2023-01-29T06:16:20.141Z,6.20
2023-01-29T06:18:46.801Z,6.30
2023-01-29T06:21:13.756Z,6.30
2023-01-29T06:23:40.615Z,6.30
2023-01-29T06:26:08.271Z,6.20
2023-01-29T06:28:35.090Z,6.30
2023-01-29T06:31:21.046Z,6.20
2023-01-29T06:33:48.886Z,6.20
2023-01-29T06:36:15.580Z,6.20
2023-01-29T06:38:42.283Z,6.20
2023-01-29T06:41:09.981Z,6.20
2023-01-29T06:43:37.005Z,6.20
2023-01-29T06:46:05.677Z,6.20
2023-01-29T06:48:32.392Z,6.20
2023-01-29T06:51:05.247Z,6.20
2023-01-29T06:53:32.717Z,6.20
2023-01-29T06:55:59.397Z,6.20
2023-01-29T06:58:26.090Z,6.20
2023-01-29T07:00:52.885Z,6.20
2023-01-29T07:03:19.664Z,6.10
2023-01-29T07:05:52.639Z,6.10
2023-01-29T07:08:19.569Z,6.10
2023-01-29T07:10:46.234Z,6.20
2023-01-29T07:13:12.916Z,6.20
2023-01-29T07:15:39.739Z,6.20
2023-01-29T07:18:12.177Z,6.20
2023-01-29T07:20:39.427Z,6.20
2023-01-29T07:23:06.467Z,6.20
2023-01-29T07:25:33.621Z,6.10
2023-01-29T07:28:01.164Z,6.10
2023-01-29T07:30:28.095Z,6.10
2023-01-29T07:32:54.925Z,6.10
2023-01-29T07:35:21.751Z,6.10
2023-01-29T07:37:51.338Z,6.00
2023-01-29T07:40:18.647Z,6.00
2023-01-29T07:42:45.643Z,6.00
2023-01-29T07:45:12.446Z,6.00
2023-01-29T07:47:39.201Z,6.00
2023-01-29T07:50:06.097Z,6.00
2023-01-29T07:52:33.238Z,6.00
2023-01-29T07:54:59.960Z,6.10
2023-01-29T07:57:26.731Z,6.00
2023-01-29T07:59:53.528Z,6.10
2023-01-29T08:02:20.326Z,6.10
2023-01-29T08:04:47.192Z,6.10
2023-01-29T08:07:13.994Z,6.20
2023-01-29T08:09:40.950Z,6.10
2023-01-29T08:12:07.677Z,6.10
2023-01-29T08:14:34.521Z,6.20
2023-01-29T08:17:01.459Z,6.10
2023-01-29T08:19:28.184Z,6.20
2023-01-29T08:21:55.049Z,6.20
2023-01-29T08:24:21.812Z,6.20
2023-01-29T08:26:48.674Z,6.20
2023-01-29T08:29:15.461Z,6.30
2023-01-29T08:31:42.224Z,6.30
2023-01-29T08:34:08.943Z,6.30
2023-01-29T08:36:35.914Z,6.30
2023-01-29T08:39:02.648Z,6.30
2023-01-29T08:41:29.448Z,6.20
2023-01-29T08:43:57.256Z,6.30
2023-01-29T08:46:24.123Z,6.30
2023-01-29T08:48:50.887Z,6.30
2023-01-29T08:51:17.685Z,6.40
2023-01-29T08:53:44.410Z,6.40
2023-01-29T08:56:11.140Z,6.50
2023-01-29T08:58:37.816Z,6.50
2023-01-29T09:01:08.169Z,6.40
2023-01-29T09:03:35.005Z,6.40
2023-01-29T09:06:01.855Z,6.40
2023-01-29T09:08:28.727Z,6.40
2023-01-29T09:10:55.475Z,6.40
2023-01-29T09:13:22.422Z,6.40
2023-01-29T09:15:49.372Z,6.40
2023-01-29T09:18:16.247Z,6.40
2023-01-29T09:20:43.206Z,6.50
2023-01-29T09:23:10.321Z,6.50
2023-01-29T09:25:37.156Z,6.50
2023-01-29T09:28:04.067Z,6.50
2023-01-29T09:30:32.063Z,6.50
2023-01-29T09:33:00.283Z,6.60
2023-01-29T09:35:27.068Z,6.60
2023-01-29T09:37:54.085Z,6.70
2023-01-29T09:40:29.825Z,6.70
2023-01-29T09:43:16.880Z,6.70
2023-01-29T09:45:50.124Z,6.70
2023-01-29T09:48:16.885Z,6.70
2023-01-29T09:50:44.251Z,6.70
2023-01-29T09:53:21.693Z,6.80
2023-01-29T09:55:53.057Z,6.80
2023-01-29T09:58:29.083Z,6.90
2023-01-29T10:00:55.940Z,6.90
2023-01-29T10:03:31.808Z,6.90
2023-01-29T10:06:17.324Z,6.90
2023-01-29T10:08:50.110Z,6.90
2023-01-29T10:11:19.587Z,6.90
2023-01-29T10:13:46.310Z,7.00
2023-01-29T10:16:31.622Z,7.00
2023-01-29T10:18:58.410Z,7.00
2023-01-29T10:21:37.212Z,7.10
2023-01-29T10:24:24.113Z,7.10
2023-01-29T10:26:51.805Z,7.20
2023-01-29T10:29:19.281Z,7.10
2023-01-29T10:31:46.937Z,7.10
2023-01-29T10:34:16.082Z,7.10
2023-01-29T10:36:46.189Z,7.10
2023-01-29T10:39:22.682Z,7.10
2023-01-29T10:41:49.838Z,7.10
2023-01-29T10:44:16.613Z,7.20
2023-01-29T10:46:50.483Z,7.30
2023-01-29T10:49:17.283Z,7.30
2023-01-29T10:52:02.382Z,7.30
2023-01-29T10:54:29.120Z,7.40
2023-01-29T10:57:05.140Z,7.40
2023-01-29T10:59:50.569Z,7.40
2023-01-29T11:02:18.456Z,7.30
2023-01-29T11:04:45.293Z,7.30
2023-01-29T11:07:12.433Z,7.40
2023-01-29T11:09:54.727Z,7.40
2023-01-29T11:12:30.368Z,7.40
2023-01-29T11:15:01.975Z,7.40
2023-01-29T11:17:28.753Z,7.40
2023-01-29T11:19:55.910Z,7.40
2023-01-29T11:22:23.477Z,7.50
2023-01-29T11:25:09.827Z,7.50
2023-01-29T11:27:41.090Z,7.50
2023-01-29T11:30:11.308Z,7.50
2023-01-29T11:32:38.103Z,7.60
2023-01-29T11:35:05.085Z,7.60
2023-01-29T11:37:36.026Z,7.70
2023-01-29T11:40:06.653Z,7.70
2023-01-29T11:42:34.977Z,7.70
2023-01-29T11:45:01.802Z,7.70
2023-01-29T11:47:29.024Z,7.80
2023-01-29T11:50:00.339Z,7.80
2023-01-29T11:52:27.775Z,7.80
2023-01-29T11:54:58.747Z,7.80
2023-01-29T11:57:30.036Z,7.80
2023-01-29T11:59:58.434Z,7.80
2023-01-29T12:02:32.468Z,7.80
2023-01-29T12:05:01.353Z,7.80
2023-01-29T12:07:28.118Z,7.80
2023-01-29T12:09:56.460Z,7.80
2023-01-29T12:12:29.939Z,7.70
2023-01-29T12:15:25.127Z,7.80
2023-01-29T12:17:53.995Z,7.80
2023-01-29T12:20:28.387Z,7.80
2023-01-29T12:23:05.912Z,7.70
2023-01-29T12:25:40.674Z,7.70
2023-01-29T12:28:25.802Z,7.70
2023-01-29T12:31:06.471Z,7.80
2023-01-29T12:33:42.063Z,7.80
2023-01-29T12:36:38.502Z,7.80
2023-01-29T12:39:05.283Z,7.80
2023-01-29T12:41:34.026Z,7.90
2023-01-29T12:44:17.201Z,7.90
2023-01-29T12:46:45.597Z,7.90
2023-01-29T12:49:15.086Z,7.90
2023-01-29T12:51:48.964Z,8.00
2023-01-29T12:54:17.850Z,8.00
2023-01-29T12:56:47.199Z,8.10
2023-01-29T12:59:16.994Z,8.10
2023-01-29T13:01:48.253Z,8.10
2023-01-29T13:04:16.455Z,8.10
2023-01-29T13:06:50.914Z,8.20
2023-01-29T13:09:19.567Z,8.10
2023-01-29T13:11:51.720Z,8.20
2023-01-29T13:14:48.031Z,8.20
2023-01-29T13:17:19.753Z,8.20
2023-01-29T13:19:47.965Z,8.20
2023-01-29T13:22:41.700Z,8.20
2023-01-29T13:25:12.821Z,8.30
2023-01-29T13:27:39.739Z,8.40
2023-01-29T13:30:06.692Z,8.40
2023-01-29T13:32:34.147Z,8.50
2023-01-29T13:35:12.093Z,8.50
2023-01-29T13:37:41.036Z,8.50
2023-01-29T13:40:08.228Z,8.50
2023-01-29T13:42:37.883Z,8.50
2023-01-29T13:45:05.604Z,8.60
2023-01-29T13:47:37.530Z,8.60
2023-01-29T13:50:08.765Z,8.60
2023-01-29T13:52:37.066Z,8.60
2023-01-29T13:55:07.573Z,8.60
2023-01-29T13:57:46.583Z,8.70
2023-01-29T14:00:16.546Z,8.70
2023-01-29T14:02:43.282Z,8.60
2023-01-29T14:05:29.125Z,8.60
2023-01-29T14:07:56.464Z,8.60
2023-01-29T14:10:23.395Z,8.60
2023-01-29T14:12:51.020Z,8.70
2023-01-29T14:15:21.500Z,8.70
2023-01-29T14:18:07.629Z,8.70
2023-01-29T14:20:45.553Z,8.70
2023-01-29T14:23:28.101Z,8.70
2023-01-29T14:25:54.918Z,8.70
2023-01-29T14:28:25.194Z,8.70
2023-01-29T14:30:52.102Z,8.70
2023-01-29T14:33:21.975Z,8.70
2023-01-29T14:35:51.837Z,8.80
2023-01-29T14:38:18.649Z,8.80
2023-01-29T14:40:45.947Z,8.90
2023-01-29T14:43:19.905Z,8.90
2023-01-29T14:45:47.402Z,8.90
2023-01-29T14:48:19.595Z,8.90
2023-01-29T14:50:47.237Z,8.90
2023-01-29T14:53:20.933Z,8.90
2023-01-29T14:56:11.076Z,8.90
2023-01-29T14:58:39.304Z,8.90
2023-01-29T15:01:07.537Z,8.90
2023-01-29T15:03:40.073Z,8.90
2023-01-29T15:06:06.927Z,8.90
2023-01-29T15:08:41.020Z,8.90
2023-01-29T15:11:27.654Z,8.90
2023-01-29T15:14:00.965Z,8.80
2023-01-29T15:16:32.280Z,8.80
2023-01-29T15:19:05.722Z,8.80
2023-01-29T15:21:33.095Z,8.80
2023-01-29T15:24:06.383Z,8.80
2023-01-29T15:26:33.379Z,8.70
2023-01-29T15:29:04.870Z,8.80
2023-01-29T15:31:32.098Z,8.80
2023-01-29T15:34:00.243Z,8.80
2023-01-29T15:36:27.975Z,8.70
2023-01-29T15:39:09.776Z,8.80
2023-01-29T15:41:36.504Z,8.80
2023-01-29T15:44:03.245Z,8.90
2023-01-29T15:46:30.054Z,8.90
2023-01-29T15:48:57.174Z,8.90
2023-01-29T15:51:24.334Z,8.90
2023-01-29T15:53:58.380Z,8.90
2023-01-29T15:56:29.474Z,8.90
2023-01-29T15:58:57.263Z,8.90
2023-01-29T16:01:26.239Z,8.90
2023-01-29T16:03:55.810Z,8.90
2023-01-29T16:06:23.397Z,8.80
2023-01-29T16:08:51.608Z,8.90
2023-01-29T16:11:18.404Z,8.80
2023-01-29T16:13:46.735Z,8.80
2023-01-29T16:16:21.197Z,8.80
2023-01-29T16:18:59.468Z,8.80
2023-01-29T16:21:28.737Z,8.80
2023-01-29T16:23:56.404Z,8.80
2023-01-29T16:26:28.167Z,8.80
2023-01-29T16:28:54.931Z,8.80
2023-01-29T16:31:22.945Z,8.80
2023-01-29T16:33:49.909Z,8.80
2023-01-29T16:36:16.602Z,8.80
2023-01-29T16:38:45.383Z,8.80
2023-01-29T16:41:21.426Z,8.70
2023-01-29T16:43:49.139Z,8.70
2023-01-29T16:46:17.800Z,8.70
2023-01-29T16:48:44.720Z,8.70
2023-01-29T16:51:23.410Z,8.70
2023-01-29T16:54:11.529Z,8.70
2023-01-29T16:56:38.528Z,8.70
2023-01-29T16:59:05.481Z,8.70
2023-01-29T17:01:32.474Z,8.70
2023-01-29T17:04:00.784Z,8.70
2023-01-29T17:06:27.767Z,8.70
2023-01-29T17:08:54.546Z,8.70
2023-01-29T17:11:26.132Z,8.70
2023-01-29T17:13:52.913Z,8.70
2023-01-29T17:16:24.070Z,8.70
2023-01-29T17:18:51.055Z,8.60
2023-01-29T17:21:17.763Z,8.60
2023-01-29T17:23:44.504Z,8.60
2023-01-29T17:26:12.170Z,8.60
2023-01-29T17:28:39.219Z,8.60
2023-01-29T17:31:07.763Z,8.50
2023-01-29T17:33:34.896Z,8.60
2023-01-29T17:36:01.754Z,8.50
2023-01-29T17:38:28.527Z,8.50
2023-01-29T17:40:58.815Z,8.60
2023-01-29T17:43:25.634Z,8.60
2023-01-29T17:45:52.387Z,8.60
2023-01-29T17:48:20.755Z,8.70
2023-01-29T17:50:48.477Z,8.70
2023-01-29T17:53:15.875Z,8.70
2023-01-29T17:55:42.775Z,8.80
2023-01-29T17:58:29.942Z,8.80
2023-01-29T18:00:56.702Z,8.80
2023-01-29T18:03:23.487Z,8.80
2023-01-29T18:05:50.350Z,8.80
2023-01-29T18:08:17.963Z,8.70
2023-01-29T18:10:45.097Z,8.70
2023-01-29T18:13:12.035Z,8.70
2023-01-29T18:15:38.827Z,8.70
2023-01-29T18:18:05.622Z,8.60
2023-01-29T18:20:32.487Z,8.60
2023-01-29T18:23:04.111Z,8.60
2023-01-29T18:25:31.284Z,8.60
2023-01-29T18:27:58.062Z,8.50
2023-01-29T18:30:24.882Z,8.50
2023-01-29T18:32:51.894Z,8.50
2023-01-29T18:35:18.933Z,8.50
2023-01-29T18:37:45.891Z,8.50
2023-01-29T18:40:19.893Z,8.50
2023-01-29T18:42:46.973Z,8.50
2023-01-29T18:45:13.810Z,8.40
2023-01-29T18:47:40.596Z,8.40
2023-01-29T18:50:07.572Z,8.40
2023-01-29T18:52:34.458Z,8.40
2023-01-29T18:55:01.324Z,8.30
2023-01-29T18:58:27.093Z,8.30
2023-01-29T19:00:15.226Z,8.20
2023-01-29T19:02:42.992Z,8.20
2023-01-29T19:05:09.862Z,8.20
2023-01-29T19:07:36.639Z,8.20
2023-01-29T19:10:06.687Z,8.20
2023-01-29T19:12:34.322Z,8.10
2023-01-29T19:15:01.166Z,8.10
2023-01-29T19:17:28.060Z,8.10
2023-01-29T19:19:56.528Z,8.10
2023-01-29T19:22:23.415Z,8.10
2023-01-29T19:24:50.153Z,8.10
2023-01-29T19:27:16.928Z,8.10
2023-01-29T19:29:43.746Z,8.10
2023-01-29T19:32:10.485Z,8.10
2023-01-29T19:34:37.258Z,8.10
2023-01-29T19:37:04.134Z,8.10
2023-01-29T19:39:33.739Z,8.10
2023-01-29T19:42:01.087Z,8.10
2023-01-29T19:44:27.931Z,8.10
2023-01-29T19:46:54.799Z,8.10
2023-01-29T19:49:21.540Z,8.10
2023-01-29T19:51:48.313Z,8.10
2023-01-29T19:54:14.999Z,8.10
2023-01-29T19:56:41.784Z,8.10
2023-01-29T19:59:08.663Z,8.10
2023-01-29T20:01:35.716Z,8.10
2023-01-29T20:04:02.435Z,8.10
2023-01-29T20:06:30.980Z,8.00
2023-01-29T20:08:57.922Z,7.90
2023-01-29T20:11:25.272Z,7.90
2023-01-29T20:13:52.153Z,7.90
2023-01-29T20:16:19.101Z,7.90
2023-01-29T20:18:46.223Z,7.80
2023-01-29T20:21:14.157Z,7.80
2023-01-29T20:23:41.373Z,7.80
2023-01-29T20:26:09.013Z,7.80
2023-01-29T20:28:36.530Z,7.70
2023-01-29T20:31:03.967Z,7.70
2023-01-29T20:33:31.864Z,7.60
2023-01-29T20:35:59.313Z,7.60
2023-01-29T20:38:31.509Z,7.60
2023-01-29T20:41:08.533Z,7.50
2023-01-29T20:43:35.684Z,7.50
2023-01-29T20:46:02.497Z,7.50
2023-01-29T20:48:29.748Z,7.50
2023-01-29T20:50:56.989Z,7.40
2023-01-29T20:53:23.733Z,7.40
2023-01-29T20:55:50.670Z,7.40
2023-01-29T20:58:17.586Z,7.40
2023-01-29T21:00:44.493Z,7.40
2023-01-29T21:03:11.280Z,7.30
2023-01-29T21:05:37.984Z,7.30
2023-01-29T21:08:04.877Z,7.30
2023-01-29T21:10:31.582Z,7.30
2023-01-29T21:12:58.371Z,7.30
2023-01-29T21:15:27.361Z,7.20
2023-01-29T21:17:54.420Z,7.20
2023-01-29T21:20:21.193Z,7.20
2023-01-29T21:22:49.107Z,7.20
2023-01-29T21:25:15.983Z,7.20
2023-01-29T21:27:42.740Z,7.20
2023-01-29T21:30:09.787Z,7.20
2023-01-29T21:32:36.587Z,7.20
2023-01-29T21:35:03.328Z,7.20
2023-01-29T21:37:30.193Z,7.20
2023-01-29T21:39:56.930Z,7.30
2023-01-29T21:42:42.124Z,7.30
2023-01-29T21:45:09.371Z,7.30
2023-01-29T21:47:36.108Z,7.30
2023-01-29T21:50:02.951Z,7.30
2023-01-29T21:52:29.681Z,7.30
2023-01-29T21:54:56.497Z,7.30
2023-01-29T21:57:26.570Z,7.30
2023-01-29T21:59:53.727Z,7.30
2023-01-29T22:02:20.918Z,7.20
2023-01-29T22:04:47.787Z,7.20
2023-01-29T22:07:14.523Z,7.20
2023-01-29T22:09:41.450Z,7.30
2023-01-29T22:12:08.568Z,7.20
2023-01-29T22:14:35.751Z,7.20
2023-01-29T22:17:02.526Z,7.20
2023-01-29T22:19:29.460Z,7.30
2023-01-29T22:21:56.387Z,7.30
2023-01-29T22:24:23.261Z,7.30
2023-01-29T22:26:50.216Z,7.30
2023-01-29T22:29:17.223Z,7.20
2023-01-29T22:31:44.096Z,7.20
2023-01-29T22:34:13.939Z,7.10
2023-01-29T22:36:40.752Z,7.10
2023-01-29T22:39:07.890Z,7.10
2023-01-29T22:41:34.759Z,7.10
2023-01-29T22:44:01.484Z,7.00
2023-01-29T22:46:28.549Z,7.00
2023-01-29T22:48:55.385Z,7.00
2023-01-29T22:51:22.194Z,6.90
2023-01-29T22:53:52.828Z,6.90
2023-01-29T22:56:20.497Z,6.90
2023-01-29T22:58:51.743Z,6.90
2023-01-29T23:01:22.263Z,6.90
2023-01-29T23:03:49.076Z,6.90
2023-01-29T23:06:15.945Z,6.90
2023-01-29T23:08:42.703Z,6.80
2023-01-29T23:11:14.207Z,6.80
2023-01-29T23:13:42.192Z,6.80
2023-01-29T23:16:09.010Z,6.80
2023-01-29T23:18:36.049Z,6.80
2023-01-29T23:21:03.080Z,6.80
2023-01-29T23:23:30.236Z,6.80
2023-01-29T23:26:16.339Z,6.90
2023-01-29T23:28:43.485Z,6.90
2023-01-29T23:31:10.565Z,6.90
2023-01-29T23:33:37.595Z,6.90
2023-01-29T23:36:04.567Z,7.00
2023-01-29T23:38:31.635Z,7.00
2023-01-29T23:40:58.376Z,7.00
2023-01-29T23:43:25.925Z,7.00
2023-01-29T23:45:52.667Z,7.00
2023-01-29T23:48:20.496Z,7.00
2023-01-29T23:50:47.371Z,7.10
2023-01-29T23:53:14.198Z,7.10
2023-01-29T23:55:40.935Z,7.10
2023-01-29T23:58:07.861Z,7.10
